sensor_id;sensor_type;location;lat;lon;timestamp;temperature;humidity
1123;DHT22;548;48.778;9.252;2022-12-18T00:01:16;-6.50;99.90
1123;DHT22;548;48.778;9.252;2022-12-18T00:03:43;-6.60;99.90
1123;DHT22;548;48.778;9.252;2022-12-18T00:06:10;-6.60;99.90
1123;DHT22;548;48.778;9.252;2022-12-18T00:08:37;-6.70;99.90
1123;DHT22;548;48.778;9.252;2022-12-18T00:11:04;-6.70;99.90
1123;DHT22;548;48.778;9.252;2022-12-18T00:13:31;-6.70;99.90
1123;DHT22;548;48.778;9.252;2022-12-18T00:16:02;-6.60;99.90
1123;DHT22;548;48.778;9.252;2022-12-18T00:18:31;-6.50;99.90
1123;DHT22;548;48.778;9.252;2022-12-18T00:21:02;-6.40;99.90
1123;DHT22;548;48.778;9.252;2022-12-18T00:23:30;-6.50;99.90
1123;DHT22;548;48.778;9.252;2022-12-18T00:25:59;-6.50;99.90
1123;DHT22;548;48.778;9.252;2022-12-18T00:28:25;-6.50;99.90
1123;DHT22;548;48.778;9.252;2022-12-18T00:31:00;-6.50;99.90
1123;DHT22;548;48.778;9.252;2022-12-18T00:33:27;-6.50;99.90
1123;DHT22;548;48.778;9.252;2022-12-18T00:35:59;-6.50;99.90
1123;DHT22;548;48.778;9.252;2022-12-18T00:38:26;-6.50;99.90
1123;DHT22;548;48.778;9.252;2022-12-18T00:40:53;-6.40;99.90
1123;DHT22;548;48.778;9.252;2022-12-18T00:43:20;-6.30;99.90
1123;DHT22;548;48.778;9.252;2022-12-18T00:45:45;-6.40;99.90
1123;DHT22;548;48.778;9.252;2022-12-18T00:48:12;-6.40;99.90
1123;DHT22;548;48.778;9.252;2022-12-18T00:50:39;-6.40;99.90
1123;DHT22;548;48.778;9.252;2022-12-18T00:53:10;-6.40;99.90
1123;DHT22;548;48.778;9.252;2022-12-18T00:55:37;-6.30;99.90
1123;DHT22;548;48.778;9.252;2022-12-18T00:58:04;-6.30;99.90
1123;DHT22;548;48.778;9.252;2022-12-18T01:00:31;-6.20;99.90
1123;DHT22;548;48.778;9.252;2022-12-18T01:02:57;-6.30;99.90
1123;DHT22;548;48.778;9.252;2022-12-18T01:05:24;-6.30;99.90
1123;DHT22;548;48.778;9.252;2022-12-18T01:07:51;-6.30;99.90
1123;DHT22;548;48.778;9.252;2022-12-18T01:10:19;-6.30;99.90
1123;DHT22;548;48.778;9.252;2022-12-18T01:12:46;-6.30;99.90
1123;DHT22;548;48.778;9.252;2022-12-18T01:15:14;-6.30;99.90
1123;DHT22;548;48.778;9.252;2022-12-18T01:17:41;-6.40;99.90
1123;DHT22;548;48.778;9.252;2022-12-18T01:20:09;-6.50;99.90
1123;DHT22;548;48.778;9.252;2022-12-18T01:22:36;-6.50;99.90
1123;DHT22;548;48.778;9.252;2022-12-18T01:25:03;-6.50;99.90
1123;DHT22;548;48.778;9.252;2022-12-18T01:27:33;-6.50;99.90
1123;DHT22;548;48.778;9.252;2022-12-18T01:30:00;-6.50;99.90
1123;DHT22;548;48.778;9.252;2022-12-18T01:32:29;-6.60;99.90
1123;DHT22;548;48.778;9.252;2022-12-18T01:34:56;-6.60;99.90
1123;DHT22;548;48.778;9.252;2022-12-18T01:37:22;-6.70;99.90
1123;DHT22;548;48.778;9.252;2022-12-18T01:39:49;-6.70;99.90
1123;DHT22;548;48.778;9.252;2022-12-18T01:42:18;-6.70;99.90
1123;DHT22;548;48.778;9.252;2022-12-18T01:45:00;-6.70;99.90
1123;DHT22;548;48.778;9.252;2022-12-18T01:47:33;-6.70;99.90
1123;DHT22;548;48.778;9.252;2022-12-18T01:50:03;-6.70;99.90
1123;DHT22;548;48.778;9.252;2022-12-18T01:52:32;-6.70;99.90
1123;DHT22;548;48.778;9.252;2022-12-18T01:54:59;-6.60;99.90
1123;DHT22;548;48.778;9.252;2022-12-18T01:57:27;-6.60;99.90
1123;DHT22;548;48.778;9.252;2022-12-18T01:59:59;-6.60;99.90
1123;DHT22;548;48.778;9.252;2022-12-18T02:02:26;-6.60;99.90
1123;DHT22;548;48.778;9.252;2022-12-18T02:04:54;-6.60;99.90
1123;DHT22;548;48.778;9.252;2022-12-18T02:07:27;-6.60;99.90
1123;DHT22;548;48.778;9.252;2022-12-18T02:10:00;-6.60;99.90
1123;DHT22;548;48.778;9.252;2022-12-18T02:12:31;-6.60;99.90
1123;DHT22;548;48.778;9.252;2022-12-18T02:15:06;-6.70;99.90
1123;DHT22;548;48.778;9.252;2022-12-18T02:17:38;-6.70;99.90
1123;DHT22;548;48.778;9.252;2022-12-18T02:20:12;-6.70;99.90
1123;DHT22;548;48.778;9.252;2022-12-18T02:22:47;-6.70;99.90
1123;DHT22;548;48.778;9.252;2022-12-18T02:25:28;-6.60;99.90
1123;DHT22;548;48.778;9.252;2022-12-18T02:27:59;-6.70;99.90
1123;DHT22;548;48.778;9.252;2022-12-18T02:30:30;-6.60;99.90
1123;DHT22;548;48.778;9.252;2022-12-18T02:32:59;-6.70;99.90
1123;DHT22;548;48.778;9.252;2022-12-18T02:35:29;-6.70;99.90
1123;DHT22;548;48.778;9.252;2022-12-18T02:37:57;-6.60;99.90
1123;DHT22;548;48.778;9.252;2022-12-18T02:40:26;-6.60;99.90
1123;DHT22;548;48.778;9.252;2022-12-18T02:42:54;-6.60;99.90
1123;DHT22;548;48.778;9.252;2022-12-18T02:45:22;-6.60;99.90
1123;DHT22;548;48.778;9.252;2022-12-18T02:47:49;-6.60;99.90
1123;DHT22;548;48.778;9.252;2022-12-18T02:50:19;-6.60;99.90
1123;DHT22;548;48.778;9.252;2022-12-18T02:52:55;-6.60;99.90
1123;DHT22;548;48.778;9.252;2022-12-18T02:55:34;-6.60;99.90
1123;DHT22;548;48.778;9.252;2022-12-18T02:58:08;-6.60;99.90
1123;DHT22;548;48.778;9.252;2022-12-18T03:00:41;-6.70;99.90
1123;DHT22;548;48.778;9.252;2022-12-18T03:03:14;-6.70;99.90
1123;DHT22;548;48.778;9.252;2022-12-18T03:05:47;-6.70;99.90
1123;DHT22;548;48.778;9.252;2022-12-18T03:08:17;-6.70;99.90
1123;DHT22;548;48.778;9.252;2022-12-18T03:10:49;-6.70;99.90
1123;DHT22;548;48.778;9.252;2022-12-18T03:13:23;-6.70;99.90
1123;DHT22;548;48.778;9.252;2022-12-18T03:15:55;-6.70;99.90
1123;DHT22;548;48.778;9.252;2022-12-18T03:21:00;-6.70;99.90
1123;DHT22;548;48.778;9.252;2022-12-18T03:23:33;-6.80;99.90
1123;DHT22;548;48.778;9.252;2022-12-18T03:26:05;-6.80;99.90
1123;DHT22;548;48.778;9.252;2022-12-18T03:28:36;-6.80;99.90
1123;DHT22;548;48.778;9.252;2022-12-18T03:31:08;-6.80;99.90
1123;DHT22;548;48.778;9.252;2022-12-18T03:33:39;-6.80;99.90
1123;DHT22;548;48.778;9.252;2022-12-18T03:36:08;-6.80;99.90
1123;DHT22;548;48.778;9.252;2022-12-18T03:38:35;-6.90;99.90
1123;DHT22;548;48.778;9.252;2022-12-18T03:41:06;-6.90;99.90
1123;DHT22;548;48.778;9.252;2022-12-18T03:43:42;-6.90;99.90
1123;DHT22;548;48.778;9.252;2022-12-18T03:46:15;-6.90;99.90
1123;DHT22;548;48.778;9.252;2022-12-18T03:48:46;-7.00;99.90
1123;DHT22;548;48.778;9.252;2022-12-18T03:51:16;-7.00;99.90
1123;DHT22;548;48.778;9.252;2022-12-18T03:53:50;-7.10;99.90
1123;DHT22;548;48.778;9.252;2022-12-18T03:56:18;-7.10;99.90
1123;DHT22;548;48.778;9.252;2022-12-18T03:58:48;-7.10;99.90
1123;DHT22;548;48.778;9.252;2022-12-18T04:01:17;-7.20;99.90
1123;DHT22;548;48.778;9.252;2022-12-18T04:03:46;-7.30;99.90
1123;DHT22;548;48.778;9.252;2022-12-18T04:06:15;-7.30;99.90
1123;DHT22;548;48.778;9.252;2022-12-18T04:08:43;-7.30;99.90
1123;DHT22;548;48.778;9.252;2022-12-18T04:11:10;-7.30;99.90
1123;DHT22;548;48.778;9.252;2022-12-18T04:13:38;-7.30;99.90
1123;DHT22;548;48.778;9.252;2022-12-18T04:16:06;-7.40;99.90
1123;DHT22;548;48.778;9.252;2022-12-18T04:18:34;-7.40;99.90
1123;DHT22;548;48.778;9.252;2022-12-18T04:21:00;-7.40;99.90
1123;DHT22;548;48.778;9.252;2022-12-18T04:23:27;-7.40;99.90
1123;DHT22;548;48.778;9.252;2022-12-18T04:25:54;-7.40;99.90
1123;DHT22;548;48.778;9.252;2022-12-18T04:28:21;-7.40;99.90
1123;DHT22;548;48.778;9.252;2022-12-18T04:30:48;-7.40;99.90
1123;DHT22;548;48.778;9.252;2022-12-18T04:33:15;-7.40;99.90
1123;DHT22;548;48.778;9.252;2022-12-18T04:35:43;-7.40;99.90
1123;DHT22;548;48.778;9.252;2022-12-18T04:38:10;-7.50;99.90
1123;DHT22;548;48.778;9.252;2022-12-18T04:40:37;-7.50;99.90
1123;DHT22;548;48.778;9.252;2022-12-18T04:43:04;-7.60;99.90
1123;DHT22;548;48.778;9.252;2022-12-18T04:45:31;-7.60;99.90
1123;DHT22;548;48.778;9.252;2022-12-18T04:47:58;-7.60;99.90
1123;DHT22;548;48.778;9.252;2022-12-18T04:50:25;-7.60;99.90
1123;DHT22;548;48.778;9.252;2022-12-18T04:52:54;-7.60;99.90
1123;DHT22;548;48.778;9.252;2022-12-18T04:55:24;-7.60;99.90
1123;DHT22;548;48.778;9.252;2022-12-18T04:57:51;-7.60;99.90
1123;DHT22;548;48.778;9.252;2022-12-18T05:00:18;-7.60;99.90
1123;DHT22;548;48.778;9.252;2022-12-18T05:02:45;-7.60;99.90
1123;DHT22;548;48.778;9.252;2022-12-18T05:05:11;-7.70;99.90
1123;DHT22;548;48.778;9.252;2022-12-18T05:07:38;-7.70;99.90
1123;DHT22;548;48.778;9.252;2022-12-18T05:10:07;-7.80;99.90
1123;DHT22;548;48.778;9.252;2022-12-18T05:12:34;-7.80;99.90
1123;DHT22;548;48.778;9.252;2022-12-18T05:15:21;-7.90;99.90
1123;DHT22;548;48.778;9.252;2022-12-18T05:17:48;-7.90;99.90
1123;DHT22;548;48.778;9.252;2022-12-18T05:20:15;-7.90;99.90
1123;DHT22;548;48.778;9.252;2022-12-18T05:22:41;-7.90;99.90
1123;DHT22;548;48.778;9.252;2022-12-18T05:25:10;-8.00;99.90
1123;DHT22;548;48.778;9.252;2022-12-18T05:27:36;-8.00;99.90
1123;DHT22;548;48.778;9.252;2022-12-18T05:30:04;-8.10;99.90
1123;DHT22;548;48.778;9.252;2022-12-18T05:32:30;-8.10;99.90
1123;DHT22;548;48.778;9.252;2022-12-18T05:34:57;-8.10;99.90
1123;DHT22;548;48.778;9.252;2022-12-18T05:37:24;-8.10;99.90
1123;DHT22;548;48.778;9.252;2022-12-18T05:39:51;-8.10;99.90
1123;DHT22;548;48.778;9.252;2022-12-18T05:42:19;-8.20;99.90
1123;DHT22;548;48.778;9.252;2022-12-18T05:44:45;-8.20;99.90
1123;DHT22;548;48.778;9.252;2022-12-18T05:47:12;-8.20;99.90
1123;DHT22;548;48.778;9.252;2022-12-18T05:49:39;-8.20;99.90
1123;DHT22;548;48.778;9.252;2022-12-18T05:52:06;-8.30;99.90
1123;DHT22;548;48.778;9.252;2022-12-18T05:54:32;-8.30;99.90
1123;DHT22;548;48.778;9.252;2022-12-18T05:56:59;-8.40;99.90
1123;DHT22;548;48.778;9.252;2022-12-18T05:59:27;-8.40;99.90
1123;DHT22;548;48.778;9.252;2022-12-18T06:01:54;-8.40;99.90
1123;DHT22;548;48.778;9.252;2022-12-18T06:04:20;-8.40;99.90
1123;DHT22;548;48.778;9.252;2022-12-18T06:06:47;-8.40;99.90
1123;DHT22;548;48.778;9.252;2022-12-18T06:09:14;-8.40;99.90
1123;DHT22;548;48.778;9.252;2022-12-18T06:11:41;-8.40;99.90
1123;DHT22;548;48.778;9.252;2022-12-18T06:14:09;-8.50;99.90
1123;DHT22;548;48.778;9.252;2022-12-18T06:16:37;-8.50;99.90
1123;DHT22;548;48.778;9.252;2022-12-18T06:19:05;-8.30;99.90
1123;DHT22;548;48.778;9.252;2022-12-18T06:21:32;-8.50;99.90
1123;DHT22;548;48.778;9.252;2022-12-18T06:24:00;-8.50;99.90
1123;DHT22;548;48.778;9.252;2022-12-18T06:26:27;-8.50;99.90
1123;DHT22;548;48.778;9.252;2022-12-18T06:28:53;-8.50;99.90
1123;DHT22;548;48.778;9.252;2022-12-18T06:31:20;-8.50;99.90
1123;DHT22;548;48.778;9.252;2022-12-18T06:33:48;-8.50;99.90
1123;DHT22;548;48.778;9.252;2022-12-18T06:36:15;-8.50;99.90
1123;DHT22;548;48.778;9.252;2022-12-18T06:38:43;-8.60;99.90
1123;DHT22;548;48.778;9.252;2022-12-18T06:41:12;-8.60;99.90
1123;DHT22;548;48.778;9.252;2022-12-18T06:43:38;-8.60;99.90
1123;DHT22;548;48.778;9.252;2022-12-18T06:46:06;-8.60;99.90
1123;DHT22;548;48.778;9.252;2022-12-18T06:48:33;-8.70;99.90
1123;DHT22;548;48.778;9.252;2022-12-18T06:51:01;-8.70;99.90
1123;DHT22;548;48.778;9.252;2022-12-18T06:53:28;-8.70;99.90
1123;DHT22;548;48.778;9.252;2022-12-18T06:56:00;-8.70;99.90
1123;DHT22;548;48.778;9.252;2022-12-18T06:58:27;-8.70;99.90
1123;DHT22;548;48.778;9.252;2022-12-18T07:00:59;-8.80;99.90
1123;DHT22;548;48.778;9.252;2022-12-18T07:03:26;-8.90;99.90
1123;DHT22;548;48.778;9.252;2022-12-18T07:05:53;-8.80;99.90
1123;DHT22;548;48.778;9.252;2022-12-18T07:08:21;-8.90;99.90
1123;DHT22;548;48.778;9.252;2022-12-18T07:10:48;-8.80;99.90
1123;DHT22;548;48.778;9.252;2022-12-18T07:13:15;-8.90;99.90
1123;DHT22;548;48.778;9.252;2022-12-18T07:15:42;-8.90;99.90
1123;DHT22;548;48.778;9.252;2022-12-18T07:18:09;-8.90;99.90
1123;DHT22;548;48.778;9.252;2022-12-18T07:20:36;-8.80;99.90
1123;DHT22;548;48.778;9.252;2022-12-18T07:23:03;-8.80;99.90
1123;DHT22;548;48.778;9.252;2022-12-18T07:25:33;-8.80;99.90
1123;DHT22;548;48.778;9.252;2022-12-18T07:28:00;-8.70;99.90
1123;DHT22;548;48.778;9.252;2022-12-18T07:30:27;-8.80;99.90
1123;DHT22;548;48.778;9.252;2022-12-18T07:32:53;-8.70;99.90
1123;DHT22;548;48.778;9.252;2022-12-18T07:35:20;-8.70;99.90
1123;DHT22;548;48.778;9.252;2022-12-18T07:37:47;-8.60;99.90
1123;DHT22;548;48.778;9.252;2022-12-18T07:40:14;-8.60;99.90
1123;DHT22;548;48.778;9.252;2022-12-18T07:42:42;-8.40;99.90
1123;DHT22;548;48.778;9.252;2022-12-18T07:45:09;-8.30;99.90
1123;DHT22;548;48.778;9.252;2022-12-18T07:47:36;-8.20;99.90
1123;DHT22;548;48.778;9.252;2022-12-18T07:50:04;-8.00;99.90
1123;DHT22;548;48.778;9.252;2022-12-18T07:52:31;-7.90;99.90
1123;DHT22;548;48.778;9.252;2022-12-18T07:54:58;-7.70;99.90
1123;DHT22;548;48.778;9.252;2022-12-18T07:57:24;-7.60;99.90
1123;DHT22;548;48.778;9.252;2022-12-18T07:59:53;-7.40;99.90
1123;DHT22;548;48.778;9.252;2022-12-18T08:02:19;-7.30;99.90
1123;DHT22;548;48.778;9.252;2022-12-18T08:04:46;-7.00;99.90
1123;DHT22;548;48.778;9.252;2022-12-18T08:07:13;-6.90;99.90
1123;DHT22;548;48.778;9.252;2022-12-18T08:09:39;-6.70;99.90
1123;DHT22;548;48.778;9.252;2022-12-18T08:12:06;-6.60;99.90
1123;DHT22;548;48.778;9.252;2022-12-18T08:14:33;-6.60;99.90
1123;DHT22;548;48.778;9.252;2022-12-18T08:17:01;-6.50;99.90
1123;DHT22;548;48.778;9.252;2022-12-18T08:19:28;-6.50;99.90
1123;DHT22;548;48.778;9.252;2022-12-18T08:21:54;-6.40;99.90
1123;DHT22;548;48.778;9.252;2022-12-18T08:24:22;-6.30;99.90
1123;DHT22;548;48.778;9.252;2022-12-18T08:26:48;-6.20;99.90
1123;DHT22;548;48.778;9.252;2022-12-18T08:29:16;-6.10;99.90
1123;DHT22;548;48.778;9.252;2022-12-18T08:31:42;-5.90;99.90
1123;DHT22;548;48.778;9.252;2022-12-18T08:34:10;-5.70;99.90
1123;DHT22;548;48.778;9.252;2022-12-18T08:36:37;-5.80;99.90
1123;DHT22;548;48.778;9.252;2022-12-18T08:39:04;-5.60;99.90
1123;DHT22;548;48.778;9.252;2022-12-18T08:41:31;-5.40;99.90
1123;DHT22;548;48.778;9.252;2022-12-18T08:43:57;-5.20;99.90
1123;DHT22;548;48.778;9.252;2022-12-18T08:46:43;-5.30;99.90
1123;DHT22;548;48.778;9.252;2022-12-18T08:49:11;-5.20;99.90
1123;DHT22;548;48.778;9.252;2022-12-18T08:51:38;-4.80;99.90
1123;DHT22;548;48.778;9.252;2022-12-18T08:54:06;-4.90;99.90
1123;DHT22;548;48.778;9.252;2022-12-18T08:56:33;-5.10;99.90
1123;DHT22;548;48.778;9.252;2022-12-18T08:59:00;-5.00;99.90
1123;DHT22;548;48.778;9.252;2022-12-18T09:01:27;-4.90;99.90
1123;DHT22;548;48.778;9.252;2022-12-18T09:03:54;-4.80;99.90
1123;DHT22;548;48.778;9.252;2022-12-18T09:06:22;-4.70;99.90
1123;DHT22;548;48.778;9.252;2022-12-18T09:08:49;-4.40;99.90
1123;DHT22;548;48.778;9.252;2022-12-18T09:11:20;-4.30;99.90
1123;DHT22;548;48.778;9.252;2022-12-18T09:13:47;-3.80;99.90
1123;DHT22;548;48.778;9.252;2022-12-18T09:16:13;-3.80;99.90
1123;DHT22;548;48.778;9.252;2022-12-18T09:18:40;-3.70;99.90
1123;DHT22;548;48.778;9.252;2022-12-18T09:21:08;-3.60;99.90
1123;DHT22;548;48.778;9.252;2022-12-18T09:23:37;-3.50;99.90
1123;DHT22;548;48.778;9.252;2022-12-18T09:26:04;-3.20;99.90
1123;DHT22;548;48.778;9.252;2022-12-18T09:28:30;-2.80;99.90
1123;DHT22;548;48.778;9.252;2022-12-18T09:30:57;-2.60;99.90
1123;DHT22;548;48.778;9.252;2022-12-18T09:33:24;-2.40;99.90
1123;DHT22;548;48.778;9.252;2022-12-18T09:35:51;-2.10;99.90
1123;DHT22;548;48.778;9.252;2022-12-18T09:38:19;-1.80;99.90
1123;DHT22;548;48.778;9.252;2022-12-18T09:40:49;-1.80;99.90
1123;DHT22;548;48.778;9.252;2022-12-18T09:43:20;-2.00;99.90
1123;DHT22;548;48.778;9.252;2022-12-18T09:45:53;-2.00;99.90
1123;DHT22;548;48.778;9.252;2022-12-18T09:48:25;-2.00;99.90
1123;DHT22;548;48.778;9.252;2022-12-18T09:50:55;-2.10;99.90
1123;DHT22;548;48.778;9.252;2022-12-18T09:53:27;-2.10;99.90
1123;DHT22;548;48.778;9.252;2022-12-18T09:55:58;-2.40;99.90
1123;DHT22;548;48.778;9.252;2022-12-18T09:58:29;-2.40;99.90
1123;DHT22;548;48.778;9.252;2022-12-18T10:00:57;-2.20;99.90
1123;DHT22;548;48.778;9.252;2022-12-18T10:03:24;-2.10;99.90
1123;DHT22;548;48.778;9.252;2022-12-18T10:05:59;-1.60;99.90
1123;DHT22;548;48.778;9.252;2022-12-18T10:08:36;-1.60;99.90
1123;DHT22;548;48.778;9.252;2022-12-18T10:11:21;-1.50;99.90
1123;DHT22;548;48.778;9.252;2022-12-18T10:13:52;-1.00;99.90
1123;DHT22;548;48.778;9.252;2022-12-18T10:16:26;-0.50;99.90
1123;DHT22;548;48.778;9.252;2022-12-18T10:19:04;-0.40;99.80
1123;DHT22;548;48.778;9.252;2022-12-18T10:21:41;-0.40;99.80
1123;DHT22;548;48.778;9.252;2022-12-18T10:24:16;-0.40;98.90
1123;DHT22;548;48.778;9.252;2022-12-18T10:26:48;-0.70;99.80
1123;DHT22;548;48.778;9.252;2022-12-18T10:29:16;-0.70;99.90
1123;DHT22;548;48.778;9.252;2022-12-18T10:31:43;-0.50;99.90
1123;DHT22;548;48.778;9.252;2022-12-18T10:34:10;-0.40;99.60
1123;DHT22;548;48.778;9.252;2022-12-18T10:36:37;-0.30;99.90
1123;DHT22;548;48.778;9.252;2022-12-18T10:39:17;0.00;99.30
1123;DHT22;548;48.778;9.252;2022-12-18T10:41:45;0.20;99.50
1123;DHT22;548;48.778;9.252;2022-12-18T10:44:23;0.60;98.80
1123;DHT22;548;48.778;9.252;2022-12-18T10:46:55;0.70;98.20
1123;DHT22;548;48.778;9.252;2022-12-18T10:49:30;0.50;98.70
1123;DHT22;548;48.778;9.252;2022-12-18T10:52:14;0.70;98.70
1123;DHT22;548;48.778;9.252;2022-12-18T10:54:48;0.60;98.90
1123;DHT22;548;48.778;9.252;2022-12-18T10:57:16;1.00;98.50
1123;DHT22;548;48.778;9.252;2022-12-18T10:59:52;1.00;98.20
1123;DHT22;548;48.778;9.252;2022-12-18T11:02:27;0.70;98.30
1123;DHT22;548;48.778;9.252;2022-12-18T11:04:54;0.80;99.40
1123;DHT22;548;48.778;9.252;2022-12-18T11:07:21;1.50;98.30
1123;DHT22;548;48.778;9.252;2022-12-18T11:09:59;1.80;97.20
1123;DHT22;548;48.778;9.252;2022-12-18T11:12:28;2.20;96.40
1123;DHT22;548;48.778;9.252;2022-12-18T11:14:59;1.60;96.00
1123;DHT22;548;48.778;9.252;2022-12-18T11:17:29;1.20;97.70
1123;DHT22;548;48.778;9.252;2022-12-18T11:19:58;1.20;98.10
1123;DHT22;548;48.778;9.252;2022-12-18T11:22:27;1.30;98.00
1123;DHT22;548;48.778;9.252;2022-12-18T11:24:57;1.50;97.80
1123;DHT22;548;48.778;9.252;2022-12-18T11:27:25;1.70;97.70
1123;DHT22;548;48.778;9.252;2022-12-18T11:29:52;2.20;97.10
1123;DHT22;548;48.778;9.252;2022-12-18T11:32:35;2.50;96.20
1123;DHT22;548;48.778;9.252;2022-12-18T11:35:13;2.30;95.60
1123;DHT22;548;48.778;9.252;2022-12-18T11:37:45;2.20;96.40
1123;DHT22;548;48.778;9.252;2022-12-18T11:40:16;2.40;96.90
1123;DHT22;548;48.778;9.252;2022-12-18T11:42:50;2.60;96.50
1123;DHT22;548;48.778;9.252;2022-12-18T11:45:25;2.90;96.10
1123;DHT22;548;48.778;9.252;2022-12-18T11:47:58;2.90;95.10
1123;DHT22;548;48.778;9.252;2022-12-18T11:50:31;3.00;95.60
1123;DHT22;548;48.778;9.252;2022-12-18T11:53:00;3.40;95.10
1123;DHT22;548;48.778;9.252;2022-12-18T11:55:33;3.20;94.90
1123;DHT22;548;48.778;9.252;2022-12-18T11:58:07;3.70;94.50
1123;DHT22;548;48.778;9.252;2022-12-18T12:00:43;3.50;93.90
1123;DHT22;548;48.778;9.252;2022-12-18T12:03:36;3.40;94.40
1123;DHT22;548;48.778;9.252;2022-12-18T12:06:10;3.80;95.70
1123;DHT22;548;48.778;9.252;2022-12-18T12:08:51;4.00;95.40
1123;DHT22;548;48.778;9.252;2022-12-18T12:11:24;3.60;94.60
1123;DHT22;548;48.778;9.252;2022-12-18T12:14:03;2.90;96.50
1123;DHT22;548;48.778;9.252;2022-12-18T12:16:39;2.40;97.00
1123;DHT22;548;48.778;9.252;2022-12-18T12:19:19;2.60;98.30
1123;DHT22;548;48.778;9.252;2022-12-18T12:21:55;2.60;97.50
1123;DHT22;548;48.778;9.252;2022-12-18T12:24:40;2.40;97.40
1123;DHT22;548;48.778;9.252;2022-12-18T12:27:18;1.90;99.20
1123;DHT22;548;48.778;9.252;2022-12-18T12:29:55;1.80;99.90
1123;DHT22;548;48.778;9.252;2022-12-18T12:32:35;1.90;99.90
1123;DHT22;548;48.778;9.252;2022-12-18T12:35:16;2.00;99.90
1123;DHT22;548;48.778;9.252;2022-12-18T12:37:52;1.90;99.90
1123;DHT22;548;48.778;9.252;2022-12-18T12:40:26;1.60;99.90
1123;DHT22;548;48.778;9.252;2022-12-18T12:42:55;1.10;99.90
1123;DHT22;548;48.778;9.252;2022-12-18T12:45:44;1.10;99.90
1123;DHT22;548;48.778;9.252;2022-12-18T12:48:18;0.90;99.90
1123;DHT22;548;48.778;9.252;2022-12-18T12:50:49;0.80;99.90
1123;DHT22;548;48.778;9.252;2022-12-18T12:53:23;0.70;99.90
1123;DHT22;548;48.778;9.252;2022-12-18T12:55:52;0.70;99.90
1123;DHT22;548;48.778;9.252;2022-12-18T12:58:26;0.70;99.90
1123;DHT22;548;48.778;9.252;2022-12-18T13:01:02;0.80;99.90
1123;DHT22;548;48.778;9.252;2022-12-18T13:03:41;0.70;99.90
1123;DHT22;548;48.778;9.252;2022-12-18T13:06:16;0.90;99.90
1123;DHT22;548;48.778;9.252;2022-12-18T13:08:54;1.20;99.90
1123;DHT22;548;48.778;9.252;2022-12-18T13:11:43;1.20;99.90
1123;DHT22;548;48.778;9.252;2022-12-18T13:14:30;1.30;99.90
1123;DHT22;548;48.778;9.252;2022-12-18T13:17:24;1.40;99.90
1123;DHT22;548;48.778;9.252;2022-12-18T13:20:04;1.60;99.90
1123;DHT22;548;48.778;9.252;2022-12-18T13:22:35;1.60;99.90
1123;DHT22;548;48.778;9.252;2022-12-18T13:25:04;1.60;99.90
1123;DHT22;548;48.778;9.252;2022-12-18T13:28:08;1.60;99.90
1123;DHT22;548;48.778;9.252;2022-12-18T13:30:50;1.60;99.90
1123;DHT22;548;48.778;9.252;2022-12-18T13:33:47;1.50;99.90
1123;DHT22;548;48.778;9.252;2022-12-18T13:39:31;1.20;99.90
1123;DHT22;548;48.778;9.252;2022-12-18T13:42:38;1.30;99.90
1123;DHT22;548;48.778;9.252;2022-12-18T13:45:42;1.10;99.90
1123;DHT22;548;48.778;9.252;2022-12-18T13:48:23;1.10;99.90
1123;DHT22;548;48.778;9.252;2022-12-18T13:50:59;1.20;99.90
1123;DHT22;548;48.778;9.252;2022-12-18T13:53:31;1.10;99.90
1123;DHT22;548;48.778;9.252;2022-12-18T13:56:01;1.00;99.90
1123;DHT22;548;48.778;9.252;2022-12-18T13:58:28;1.00;99.90
1123;DHT22;548;48.778;9.252;2022-12-18T14:00:55;1.00;99.90
1123;DHT22;548;48.778;9.252;2022-12-18T14:03:24;1.10;99.90
1123;DHT22;548;48.778;9.252;2022-12-18T14:05:55;0.90;99.90
1123;DHT22;548;48.778;9.252;2022-12-18T14:08:23;0.90;99.90
1123;DHT22;548;48.778;9.252;2022-12-18T14:10:51;0.80;99.90
1123;DHT22;548;48.778;9.252;2022-12-18T14:13:23;0.70;99.90
1123;DHT22;548;48.778;9.252;2022-12-18T14:15:53;0.60;99.90
1123;DHT22;548;48.778;9.252;2022-12-18T14:18:23;0.50;99.90
1123;DHT22;548;48.778;9.252;2022-12-18T14:20:52;0.30;99.90
1123;DHT22;548;48.778;9.252;2022-12-18T14:23:31;0.50;99.90
1123;DHT22;548;48.778;9.252;2022-12-18T14:25:58;0.40;99.90
1123;DHT22;548;48.778;9.252;2022-12-18T14:28:26;0.40;99.90
1123;DHT22;548;48.778;9.252;2022-12-18T14:30:54;0.30;99.90
1123;DHT22;548;48.778;9.252;2022-12-18T14:33:23;0.10;99.90
1123;DHT22;548;48.778;9.252;2022-12-18T14:35:56;0.10;99.90
1123;DHT22;548;48.778;9.252;2022-12-18T14:38:26;0.00;99.90
1123;DHT22;548;48.778;9.252;2022-12-18T14:40:54;-0.10;99.90
1123;DHT22;548;48.778;9.252;2022-12-18T14:43:21;-0.20;99.90
1123;DHT22;548;48.778;9.252;2022-12-18T14:45:50;-0.30;99.90
1123;DHT22;548;48.778;9.252;2022-12-18T14:48:19;-0.40;99.90
1123;DHT22;548;48.778;9.252;2022-12-18T14:50:55;-0.50;99.90
1123;DHT22;548;48.778;9.252;2022-12-18T14:53:26;-0.60;99.90
1123;DHT22;548;48.778;9.252;2022-12-18T14:55:55;-0.60;99.90
1123;DHT22;548;48.778;9.252;2022-12-18T14:58:22;-0.70;99.90
1123;DHT22;548;48.778;9.252;2022-12-18T15:00:50;-0.70;99.90
1123;DHT22;548;48.778;9.252;2022-12-18T15:03:18;-0.80;99.90
1123;DHT22;548;48.778;9.252;2022-12-18T15:05:46;-0.90;99.90
1123;DHT22;548;48.778;9.252;2022-12-18T15:08:29;-0.90;99.90
1123;DHT22;548;48.778;9.252;2022-12-18T15:10:56;-0.90;99.90
1123;DHT22;548;48.778;9.252;2022-12-18T15:13:24;-1.10;99.90
1123;DHT22;548;48.778;9.252;2022-12-18T15:15:53;-1.10;99.90
1123;DHT22;548;48.778;9.252;2022-12-18T15:18:26;-1.20;99.90
1123;DHT22;548;48.778;9.252;2022-12-18T15:20:55;-1.30;99.90
1123;DHT22;548;48.778;9.252;2022-12-18T15:23:24;-1.30;99.90
1123;DHT22;548;48.778;9.252;2022-12-18T15:25:56;-1.40;99.90
1123;DHT22;548;48.778;9.252;2022-12-18T15:28:25;-1.50;99.90
1123;DHT22;548;48.778;9.252;2022-12-18T15:31:02;-1.50;99.90
1123;DHT22;548;48.778;9.252;2022-12-18T15:33:32;-1.50;99.90
1123;DHT22;548;48.778;9.252;2022-12-18T15:36:00;-1.50;99.90
1123;DHT22;548;48.778;9.252;2022-12-18T15:38:27;-1.60;99.90
1123;DHT22;548;48.778;9.252;2022-12-18T15:40:54;-1.60;99.90
1123;DHT22;548;48.778;9.252;2022-12-18T15:43:21;-1.70;99.90
1123;DHT22;548;48.778;9.252;2022-12-18T15:46:02;-1.70;99.90
1123;DHT22;548;48.778;9.252;2022-12-18T15:48:29;-1.80;99.90
1123;DHT22;548;48.778;9.252;2022-12-18T15:50:57;-1.80;99.90
1123;DHT22;548;48.778;9.252;2022-12-18T15:53:26;-1.90;99.90
1123;DHT22;548;48.778;9.252;2022-12-18T15:55:54;-1.90;99.90
1123;DHT22;548;48.778;9.252;2022-12-18T15:58:38;-1.90;99.90
1123;DHT22;548;48.778;9.252;2022-12-18T16:01:08;-1.90;99.90
1123;DHT22;548;48.778;9.252;2022-12-18T16:03:35;-1.90;99.90
1123;DHT22;548;48.778;9.252;2022-12-18T16:06:02;-1.90;99.90
1123;DHT22;548;48.778;9.252;2022-12-18T16:08:29;-1.90;99.90
1123;DHT22;548;48.778;9.252;2022-12-18T16:10:56;-2.00;99.90
1123;DHT22;548;48.778;9.252;2022-12-18T16:13:23;-2.00;99.90
1123;DHT22;548;48.778;9.252;2022-12-18T16:15:50;-2.20;99.90
1123;DHT22;548;48.778;9.252;2022-12-18T16:18:18;-2.20;99.90
1123;DHT22;548;48.778;9.252;2022-12-18T16:20:45;-2.20;99.90
1123;DHT22;548;48.778;9.252;2022-12-18T16:23:12;-2.20;99.90
1123;DHT22;548;48.778;9.252;2022-12-18T16:25:38;-2.30;99.90
1123;DHT22;548;48.778;9.252;2022-12-18T16:28:05;-2.30;99.90
1123;DHT22;548;48.778;9.252;2022-12-18T16:30:32;-2.20;99.90
1123;DHT22;548;48.778;9.252;2022-12-18T16:32:59;-2.20;99.90
1123;DHT22;548;48.778;9.252;2022-12-18T16:35:27;-2.20;99.90
1123;DHT22;548;48.778;9.252;2022-12-18T16:37:53;-2.20;99.90
1123;DHT22;548;48.778;9.252;2022-12-18T16:40:20;-2.20;99.90
1123;DHT22;548;48.778;9.252;2022-12-18T16:42:47;-2.20;99.90
1123;DHT22;548;48.778;9.252;2022-12-18T16:45:15;-2.20;99.90
1123;DHT22;548;48.778;9.252;2022-12-18T16:47:43;-2.20;99.90